createdAt,value
2018-02-03T00:02:16.003Z,0.60
2018-02-03T00:04:44.284Z,0.60
2018-02-03T00:07:12.556Z,0.60
2018-02-03T00:09:40.833Z,0.60
2018-02-03T00:12:09.125Z,0.60
2018-02-03T00:14:37.413Z,0.60
2018-02-03T00:17:05.690Z,0.50
2018-02-03T00:19:34.723Z,0.60
2018-02-03T00:22:03.006Z,0.40
2018-02-03T00:24:31.289Z,0.50
2018-02-03T00:26:59.561Z,0.50
2018-02-03T00:29:28.620Z,0.50
2018-02-03T00:31:56.896Z,0.50
2018-02-03T00:34:25.180Z,0.50
2018-02-03T00:36:53.453Z,0.50
2018-02-03T00:39:21.735Z,0.40
2018-02-03T00:41:50.004Z,0.40
2018-02-03T00:44:20.271Z,0.50
2018-02-03T00:46:48.761Z,0.50
2018-02-03T00:49:17.049Z,0.40
2018-02-03T00:51:45.321Z,0.40
2018-02-03T00:54:14.368Z,0.40
2018-02-03T00:56:42.640Z,0.40
2018-02-03T00:59:10.922Z,0.70
2018-02-03T01:01:39.185Z,0.60
2018-02-03T01:04:08.225Z,0.40
2018-02-03T01:06:36.497Z,0.40
2018-02-03T01:09:04.796Z,0.40
2018-02-03T01:11:33.063Z,0.40
2018-02-03T01:14:02.108Z,0.30
2018-02-03T01:16:30.372Z,0.40
2018-02-03T01:18:58.658Z,0.30
2018-02-03T01:21:26.933Z,0.30
2018-02-03T01:23:55.985Z,0.30
2018-02-03T01:26:24.267Z,0.40
2018-02-03T01:28:52.539Z,0.30
2018-02-03T01:31:20.825Z,0.20
2018-02-03T01:33:49.111Z,0.10
2018-02-03T01:36:19.339Z,0.20
2018-02-03T01:38:47.620Z,0.20
2018-02-03T01:41:16.666Z,0.10
2018-02-03T01:43:45.854Z,0.10
2018-02-03T01:46:14.165Z,0.10
2018-02-03T01:48:47.455Z,0.20
2018-02-03T01:51:15.736Z,0.00
2018-02-03T01:53:44.018Z,-0.10
2018-02-03T01:56:16.711Z,0.00
2018-02-03T01:58:46.957Z,0.00
2018-02-03T02:01:15.245Z,0.00
2018-02-03T02:03:43.519Z,0.00
2018-02-03T02:06:16.533Z,0.00
2018-02-03T02:08:44.803Z,0.00
2018-02-03T02:11:13.096Z,0.00
2018-02-03T02:13:41.376Z,0.00
2018-02-03T02:16:14.000Z,0.00
2018-02-03T02:18:42.272Z,0.00
2018-02-03T02:21:10.551Z,0.00
2018-02-03T02:23:38.834Z,0.00
2018-02-03T02:26:07.890Z,0.00
2018-02-03T02:28:36.173Z,-0.10
2018-02-03T02:31:04.461Z,-0.10
2018-02-03T02:33:32.739Z,0.00
2018-02-03T02:36:01.066Z,0.00
2018-02-03T02:38:29.332Z,-0.10
2018-02-03T02:40:57.624Z,-0.10
2018-02-03T02:43:25.905Z,-0.10
2018-02-03T02:45:55.145Z,0.10
2018-02-03T02:48:23.388Z,-0.10
2018-02-03T02:50:51.682Z,-0.10
2018-02-03T02:53:19.970Z,-0.10
2018-02-03T02:55:48.244Z,0.00
2018-02-03T02:58:16.529Z,-0.10
2018-02-03T03:00:44.820Z,0.20
2018-02-03T03:03:13.113Z,-0.10
2018-02-03T03:05:41.396Z,-0.10
2018-02-03T03:08:09.677Z,-0.10
2018-02-03T03:10:37.954Z,-0.10
2018-02-03T03:13:06.997Z,-0.20
2018-02-03T03:15:35.280Z,-0.10
2018-02-03T03:18:04.481Z,-0.10
2018-02-03T03:20:32.767Z,-0.10
2018-02-03T03:23:01.048Z,-0.20
2018-02-03T03:25:29.321Z,-0.20
2018-02-03T03:27:58.351Z,-0.10
2018-02-03T03:30:27.217Z,-0.10
2018-02-03T03:32:55.489Z,-0.20
2018-02-03T03:35:23.784Z,-0.20
2018-02-03T03:38:15.516Z,-0.30
2018-02-03T03:40:43.820Z,-0.30
2018-02-03T03:43:16.877Z,-0.10
2018-02-03T03:45:47.117Z,-0.10
2018-02-03T03:48:17.349Z,0.00
2018-02-03T03:50:45.657Z,-0.20
2018-02-03T03:53:13.933Z,0.10
2018-02-03T03:55:42.238Z,-0.10
2018-02-03T03:58:10.515Z,-0.20
2018-02-03T04:00:38.803Z,-0.20
2018-02-03T04:03:07.073Z,0.00
2018-02-03T04:05:46.600Z,-0.20
2018-02-03T04:08:15.632Z,-0.20
2018-02-03T04:10:43.921Z,0.10
2018-02-03T04:13:12.191Z,-0.20
2018-02-03T04:15:50.611Z,0.00
2018-02-03T04:18:19.649Z,-0.30
2018-02-03T04:20:48.688Z,-0.30
2018-02-03T04:23:16.971Z,-0.20
2018-02-03T04:25:45.247Z,0.10
2018-02-03T04:28:13.540Z,-0.30
2018-02-03T04:30:41.823Z,-0.30
2018-02-03T04:33:10.093Z,-0.30
2018-02-03T04:35:38.356Z,0.10
2018-02-03T04:38:06.629Z,-0.40
2018-02-03T04:40:35.677Z,-0.40
2018-02-03T04:43:03.956Z,-0.20
2018-02-03T04:45:36.048Z,-0.40
2018-02-03T04:48:04.311Z,-0.40
2018-02-03T04:50:32.592Z,-0.50
2018-02-03T04:53:00.909Z,-0.50
2018-02-03T04:55:29.186Z,-0.50
2018-02-03T04:57:57.469Z,-0.60
2018-02-03T05:00:25.744Z,-0.50
2018-02-03T05:02:54.779Z,-0.10
2018-02-03T05:05:23.062Z,-0.20
2018-02-03T05:10:51.333Z,-0.50
2018-02-03T05:13:19.590Z,-0.60
2018-02-03T05:15:47.880Z,-0.50
2018-02-03T05:18:16.152Z,-0.60
2018-02-03T05:20:44.968Z,-0.60
2018-02-03T05:23:13.241Z,-0.50
2018-02-03T05:25:48.124Z,-0.50
2018-02-03T05:28:16.569Z,-0.50
2018-02-03T05:30:45.785Z,-0.70
2018-02-03T05:33:14.068Z,-0.60
2018-02-03T05:35:43.281Z,-0.50
2018-02-03T05:38:11.579Z,-0.60
2018-02-03T05:40:39.852Z,-0.30
2018-02-03T05:43:08.153Z,-0.50
2018-02-03T05:45:36.428Z,-0.60
2018-02-03T05:48:05.657Z,-0.50
2018-02-03T05:50:46.452Z,-0.50
2018-02-03T05:53:14.763Z,-0.50
2018-02-03T05:55:43.031Z,-0.60
2018-02-03T05:58:11.311Z,-0.50
2018-02-03T06:00:39.600Z,-0.60
2018-02-03T06:03:07.894Z,-0.70
2018-02-03T06:05:36.162Z,-0.70
2018-02-03T06:08:04.452Z,-0.70
2018-02-03T06:10:32.741Z,-0.70
2018-02-03T06:13:01.027Z,-0.70
2018-02-03T06:15:29.287Z,-0.70
2018-02-03T06:17:57.571Z,-0.60
2018-02-03T06:20:26.625Z,-0.50
2018-02-03T06:22:56.868Z,-0.50
2018-02-03T06:25:36.368Z,-0.40
2018-02-03T06:28:05.429Z,-0.60
2018-02-03T06:30:33.719Z,-0.60
2018-02-03T06:33:02.017Z,-0.70
2018-02-03T06:35:30.290Z,-0.70
2018-02-03T06:37:58.581Z,-0.70
2018-02-03T06:40:26.885Z,-0.60
2018-02-03T06:42:55.180Z,-0.70
2018-02-03T06:45:23.452Z,-0.60
2018-02-03T06:47:51.750Z,-0.80
2018-02-03T06:50:20.025Z,-0.80
2018-02-03T06:52:48.321Z,-0.60
2018-02-03T06:55:21.695Z,-0.80
2018-02-03T06:57:50.029Z,-0.70
2018-02-03T07:00:18.301Z,-0.80
2018-02-03T07:02:46.592Z,-0.80
2018-02-03T07:05:14.876Z,-0.80
2018-02-03T07:07:43.157Z,-0.50
2018-02-03T07:10:11.436Z,-0.80
2018-02-03T07:12:39.718Z,-0.60
2018-02-03T07:15:08.005Z,-0.80
2018-02-03T07:18:07.756Z,-0.70
2018-02-03T07:20:36.049Z,-0.80
2018-02-03T07:23:04.315Z,-0.80
2018-02-03T07:25:32.600Z,-0.80
2018-02-03T07:28:00.898Z,-0.70
2018-02-03T07:30:29.197Z,-0.70
2018-02-03T07:32:57.473Z,-0.70
2018-02-03T07:35:25.760Z,-0.70
2018-02-03T07:37:54.031Z,-0.70
2018-02-03T07:40:23.102Z,-0.80
2018-02-03T07:42:51.377Z,-0.80
2018-02-03T07:45:19.657Z,-0.80
2018-02-03T07:47:47.927Z,-0.80
2018-02-03T07:50:16.225Z,-0.90
2018-02-03T07:52:46.640Z,-0.90
2018-02-03T07:55:14.930Z,-0.80
2018-02-03T07:57:43.207Z,-0.80
2018-02-03T08:00:12.252Z,-0.70
2018-02-03T08:02:40.525Z,-0.70
2018-02-03T08:05:12.392Z,-0.60
2018-02-03T08:07:40.666Z,-0.50
2018-02-03T08:10:08.951Z,-0.50
2018-02-03T08:12:40.735Z,-0.40
2018-02-03T08:15:29.676Z,-0.50
2018-02-03T08:17:57.935Z,-0.60
2018-02-03T08:20:26.461Z,-0.70
2018-02-03T08:22:54.740Z,-0.40
2018-02-03T08:25:23.047Z,-0.60
2018-02-03T08:27:52.123Z,-0.70
2018-02-03T08:30:20.483Z,-0.50
2018-02-03T08:32:48.777Z,-0.50
2018-02-03T08:35:17.064Z,-0.80
2018-02-03T08:37:47.398Z,-0.80
2018-02-03T08:40:15.600Z,-0.80
2018-02-03T08:42:43.887Z,-0.80
2018-02-03T08:45:12.158Z,-0.70
2018-02-03T08:47:40.478Z,-0.90
2018-02-03T08:50:08.747Z,-0.80
2018-02-03T08:52:37.037Z,-0.90
2018-02-03T08:55:05.316Z,-0.90
2018-02-03T08:57:33.601Z,-0.70
2018-02-03T09:00:01.915Z,-0.80
2018-02-03T09:02:30.195Z,-0.70
2018-02-03T09:04:58.468Z,-0.60
2018-02-03T09:07:31.352Z,-0.60
2018-02-03T09:10:01.585Z,-0.60
2018-02-03T09:12:29.864Z,-0.60
2018-02-03T09:14:58.139Z,-0.70
2018-02-03T09:17:27.424Z,-0.50
2018-02-03T09:19:56.925Z,-0.50
2018-02-03T09:22:25.542Z,-0.50
2018-02-03T09:24:54.603Z,0.00
2018-02-03T09:27:22.888Z,-0.10
2018-02-03T09:29:53.129Z,-0.10
2018-02-03T09:32:21.398Z,-0.10
2018-02-03T09:34:49.672Z,0.00
2018-02-03T09:37:18.721Z,0.00
2018-02-03T09:39:47.008Z,0.00
2018-02-03T09:42:15.284Z,-0.10
2018-02-03T09:44:43.553Z,-0.10
2018-02-03T09:47:16.573Z,-0.10
2018-02-03T09:49:44.849Z,0.00
2018-02-03T09:52:17.043Z,-0.10
2018-02-03T09:54:45.331Z,-0.10
2018-02-03T09:57:31.875Z,0.00
2018-02-03T10:00:01.061Z,0.00
2018-02-03T10:02:29.336Z,-0.20
2018-02-03T10:04:57.669Z,-0.20
2018-02-03T10:07:25.912Z,-0.30
2018-02-03T10:09:55.143Z,-0.30
2018-02-03T10:12:25.381Z,-0.50
2018-02-03T10:14:53.669Z,-0.50
2018-02-03T10:17:21.958Z,-0.50
2018-02-03T10:19:50.231Z,-0.20
2018-02-03T10:22:19.464Z,0.10
2018-02-03T10:24:47.738Z,0.10
2018-02-03T10:27:16.013Z,0.30
2018-02-03T10:29:44.286Z,0.30
2018-02-03T10:32:13.337Z,0.40
2018-02-03T10:34:41.605Z,0.10
2018-02-03T10:37:09.885Z,0.20
2018-02-03T10:39:38.726Z,0.40
2018-02-03T10:42:07.018Z,0.60
2018-02-03T10:44:35.290Z,0.60
2018-02-03T10:47:03.569Z,0.50
2018-02-03T10:49:31.836Z,0.70
2018-02-03T10:52:00.872Z,0.70
2018-02-03T10:54:30.051Z,0.70
2018-02-03T10:56:59.095Z,1.30
2018-02-03T10:59:27.360Z,1.20
2018-02-03T11:01:55.629Z,1.00
2018-02-03T11:04:24.656Z,1.20
2018-02-03T11:07:02.748Z,1.50
2018-02-03T11:09:31.772Z,1.00
2018-02-03T11:12:00.044Z,1.00
2018-02-03T11:14:29.123Z,0.90
2018-02-03T11:16:57.402Z,0.70
2018-02-03T11:19:25.670Z,0.80
2018-02-03T11:21:53.943Z,0.90
2018-02-03T11:24:22.216Z,0.90
2018-02-03T11:26:52.192Z,1.40
2018-02-03T11:29:20.467Z,1.60
2018-02-03T11:31:48.748Z,1.70
2018-02-03T11:34:17.021Z,1.30
2018-02-03T11:36:47.258Z,1.20
2018-02-03T11:39:16.571Z,1.40
2018-02-03T11:41:44.857Z,1.50
2018-02-03T11:44:13.151Z,1.60
2018-02-03T11:46:41.420Z,1.50
2018-02-03T11:49:10.451Z,1.20
2018-02-03T11:51:38.711Z,1.00
2018-02-03T11:54:07.753Z,1.50
2018-02-03T11:56:36.016Z,1.40
2018-02-03T11:59:04.287Z,1.40
2018-02-03T12:01:33.318Z,1.20
2018-02-03T12:04:01.596Z,1.50
2018-02-03T12:06:29.860Z,1.00
2018-02-03T12:08:58.348Z,0.90
2018-02-03T12:11:27.600Z,0.70
2018-02-03T12:13:56.808Z,0.60
2018-02-03T12:16:29.715Z,0.70
2018-02-03T12:18:57.981Z,0.60
2018-02-03T12:21:27.015Z,0.30
2018-02-03T12:23:55.294Z,0.40
2018-02-03T12:26:27.864Z,0.30
2018-02-03T12:28:56.893Z,0.50
2018-02-03T12:31:41.768Z,0.50
2018-02-03T12:34:11.243Z,0.70
2018-02-03T12:36:39.531Z,0.80
2018-02-03T12:39:07.824Z,0.90
2018-02-03T12:41:36.092Z,0.80
2018-02-03T12:44:04.356Z,0.90
2018-02-03T12:46:32.630Z,0.80
2018-02-03T12:49:04.493Z,1.00
2018-02-03T12:51:40.207Z,0.80
2018-02-03T12:54:14.871Z,0.90
2018-02-03T12:56:43.894Z,1.30
2018-02-03T12:59:12.152Z,1.30
2018-02-03T13:01:40.444Z,1.30
2018-02-03T13:04:08.713Z,1.30
2018-02-03T13:06:37.057Z,1.20
2018-02-03T13:09:05.342Z,1.30
2018-02-03T13:11:34.345Z,0.60
2018-02-03T13:14:02.604Z,1.00
2018-02-03T13:16:30.859Z,0.50
2018-02-03T13:18:59.149Z,0.50
2018-02-03T13:21:41.037Z,0.40
2018-02-03T13:24:22.656Z,0.30
2018-02-03T13:26:50.939Z,0.30
2018-02-03T13:29:19.210Z,0.30
2018-02-03T13:31:47.488Z,0.20
2018-02-03T13:34:15.759Z,0.10
2018-02-03T13:36:44.787Z,0.20
2018-02-03T13:39:13.075Z,0.20
2018-02-03T13:41:41.352Z,0.30
2018-02-03T13:44:09.668Z,0.20
2018-02-03T13:49:48.713Z,0.10
2018-02-03T13:52:17.744Z,0.10
2018-02-03T13:54:46.022Z,0.10
2018-02-03T13:57:14.296Z,0.10
2018-02-03T14:00:02.115Z,0.10
2018-02-03T14:02:30.367Z,0.20
2018-02-03T14:04:58.654Z,0.20
2018-02-03T14:07:26.926Z,0.30
2018-02-03T14:09:55.214Z,0.10
2018-02-03T14:12:23.467Z,0.20
2018-02-03T14:14:54.443Z,0.10
2018-02-03T14:17:24.676Z,0.20
2018-02-03T14:19:53.720Z,0.10
2018-02-03T14:22:21.986Z,0.20
2018-02-03T14:24:52.035Z,0.30
2018-02-03T14:27:22.239Z,0.10
2018-02-03T14:29:50.508Z,0.10
2018-02-03T14:32:20.452Z,-0.10
2018-02-03T14:34:48.735Z,0.00
2018-02-03T14:37:29.134Z,0.10
2018-02-03T14:40:01.074Z,0.20
2018-02-03T14:42:30.103Z,0.10
2018-02-03T14:45:04.498Z,0.20
2018-02-03T14:47:50.054Z,0.10
2018-02-03T14:50:21.379Z,0.20
2018-02-03T14:52:50.431Z,0.00
2018-02-03T14:55:21.974Z,0.20
2018-02-03T14:57:55.875Z,0.10
2018-02-03T15:00:27.491Z,0.30
2018-02-03T15:02:55.757Z,0.10
2018-02-03T15:05:46.002Z,0.10
2018-02-03T15:08:31.140Z,0.00
2018-02-03T15:10:59.413Z,0.00
2018-02-03T15:13:27.689Z,0.00
2018-02-03T15:15:56.709Z,-0.10
2018-02-03T15:21:26.066Z,-0.10
2018-02-03T15:23:54.345Z,-0.10
2018-02-03T15:26:22.610Z,0.00
2018-02-03T15:29:14.922Z,-0.10
2018-02-03T15:31:43.216Z,-0.10
2018-02-03T15:34:11.505Z,-0.10
2018-02-03T15:36:39.777Z,-0.10
2018-02-03T15:39:14.477Z,-0.20
2018-02-03T15:44:47.325Z,-0.40
2018-02-03T15:47:15.595Z,-0.20
2018-02-03T15:49:44.764Z,-0.40
2018-02-03T15:52:13.024Z,-0.20
2018-02-03T15:54:41.315Z,-0.40
2018-02-03T15:57:09.597Z,-0.40
2018-02-03T15:59:37.875Z,-0.30
2018-02-03T16:02:06.135Z,-0.20
2018-02-03T16:04:35.179Z,-0.50
2018-02-03T16:07:03.448Z,-0.20
2018-02-03T16:09:31.776Z,-0.30
2018-02-03T16:12:00.762Z,-0.20
2018-02-03T16:14:29.255Z,-0.60
2018-02-03T16:16:57.522Z,-0.20
2018-02-03T16:19:25.979Z,-0.30
2018-02-03T16:21:54.287Z,-0.30
2018-02-03T16:24:23.336Z,-0.50
2018-02-03T16:26:51.621Z,-0.30
2018-02-03T16:29:19.909Z,-0.40
2018-02-03T16:31:48.190Z,-0.50
2018-02-03T16:34:16.469Z,-0.30
2018-02-03T16:36:44.742Z,-0.50
2018-02-03T16:39:13.785Z,-0.40
2018-02-03T16:41:42.081Z,-0.40
2018-02-03T16:44:10.365Z,-0.50
2018-02-03T16:46:42.276Z,-0.50
2018-02-03T16:49:10.535Z,-0.50
2018-02-03T16:51:38.807Z,-0.50
2018-02-03T16:54:07.080Z,-0.50
2018-02-03T16:56:42.270Z,-0.50
2018-02-03T16:59:10.546Z,-0.50
2018-02-03T17:01:38.820Z,-0.50
2018-02-03T17:04:07.112Z,-0.50
2018-02-03T17:06:35.379Z,-0.50
2018-02-03T17:09:03.659Z,-0.30
2018-02-03T17:11:32.695Z,-0.10
2018-02-03T17:14:00.987Z,-0.30
2018-02-03T17:16:29.260Z,-0.40
2018-02-03T17:18:57.564Z,-0.40
2018-02-03T17:21:25.832Z,-0.40
2018-02-03T17:23:54.116Z,-0.40
2018-02-03T17:26:23.165Z,-0.40
2018-02-03T17:28:51.440Z,-0.20
2018-02-03T17:31:20.614Z,-0.30
2018-02-03T17:33:49.647Z,-0.40
2018-02-03T17:36:23.423Z,-0.20
2018-02-03T17:39:06.583Z,-0.30
2018-02-03T17:41:40.011Z,-0.40
2018-02-03T17:44:09.226Z,-0.40
2018-02-03T17:46:42.968Z,-0.40
2018-02-03T17:49:11.247Z,-0.40
2018-02-03T17:54:40.672Z,-0.40
2018-02-03T17:57:14.375Z,-0.30
2018-02-03T17:59:48.896Z,-0.30
2018-02-03T18:02:17.936Z,-0.40
2018-02-03T18:04:47.033Z,-0.20
2018-02-03T18:07:15.317Z,-0.40
2018-02-03T18:10:00.639Z,-0.40
2018-02-03T18:12:42.326Z,-0.40
2018-02-03T18:15:10.616Z,-0.40
2018-02-03T18:17:38.885Z,-0.40
2018-02-03T18:20:07.927Z,-0.20
2018-02-03T18:22:36.202Z,-0.10
2018-02-03T18:25:04.475Z,-0.40
2018-02-03T18:27:32.758Z,-0.40
2018-02-03T18:30:01.796Z,-0.40
2018-02-03T18:32:30.058Z,-0.10
2018-02-03T18:34:58.330Z,-0.40
2018-02-03T18:37:27.373Z,-0.40
2018-02-03T18:39:56.647Z,-0.30
2018-02-03T18:42:24.920Z,-0.40
2018-02-03T18:44:53.198Z,-0.40
2018-02-03T18:47:21.485Z,-0.10
2018-02-03T18:49:49.765Z,-0.40
2018-02-03T18:52:18.053Z,-0.40
2018-02-03T18:54:46.337Z,-0.10
2018-02-03T18:57:14.607Z,-0.40
2018-02-03T18:59:44.841Z,-0.40
2018-02-03T19:02:13.107Z,-0.20
2018-02-03T19:04:41.386Z,-0.30
2018-02-03T19:07:10.432Z,-0.40
2018-02-03T19:09:38.725Z,-0.20
2018-02-03T19:12:07.013Z,-0.40
2018-02-03T19:14:35.306Z,-0.40
2018-02-03T19:17:03.576Z,-0.40
2018-02-03T19:19:31.918Z,-0.40
2018-02-03T19:22:00.193Z,-0.50
2018-02-03T19:24:28.463Z,-0.40
2018-02-03T19:26:56.738Z,-0.60
2018-02-03T19:29:25.007Z,-0.50
2018-02-03T19:31:53.293Z,-0.30
2018-02-03T19:34:21.563Z,-0.30
2018-02-03T19:36:50.735Z,-0.30
2018-02-03T19:39:19.000Z,-0.30
2018-02-03T19:41:48.199Z,-0.10
2018-02-03T19:44:16.468Z,-0.40
2018-02-03T19:46:44.741Z,-0.50
2018-02-03T19:49:13.777Z,-0.20
2018-02-03T19:51:42.051Z,-0.60
2018-02-03T19:54:10.346Z,-0.50
2018-02-03T19:56:38.651Z,-0.50
2018-02-03T19:59:06.907Z,-0.20
2018-02-03T20:01:56.476Z,-0.40
2018-02-03T20:04:24.744Z,-0.20
2018-02-03T20:07:18.024Z,-0.30
2018-02-03T20:12:47.644Z,-0.40
2018-02-03T20:15:34.710Z,-0.10
2018-02-03T20:18:28.691Z,-0.40
2018-02-03T20:20:56.964Z,-0.40
2018-02-03T20:23:25.236Z,-0.30
2018-02-03T20:25:53.533Z,-0.40
2018-02-03T20:31:23.183Z,-0.40
2018-02-03T20:33:51.464Z,-0.40
2018-02-03T20:36:27.347Z,-0.40
2018-02-03T20:38:59.448Z,-0.20
2018-02-03T20:41:27.737Z,-0.20
2018-02-03T20:43:56.005Z,-0.30
2018-02-03T20:46:41.121Z,-0.40
2018-02-03T20:49:09.396Z,-0.30
2018-02-03T20:51:44.080Z,-0.40
2018-02-03T20:54:13.125Z,-0.40
2018-02-03T20:56:41.407Z,-0.10
2018-02-03T20:59:09.684Z,-0.40
2018-02-03T21:01:37.968Z,-0.40
2018-02-03T21:04:06.255Z,-0.40
2018-02-03T21:06:34.535Z,-0.40
2018-02-03T21:09:03.577Z,-0.40
2018-02-03T21:11:31.861Z,-0.30
2018-02-03T21:14:00.179Z,-0.40
2018-02-03T21:16:28.452Z,-0.40
2018-02-03T21:21:58.287Z,-0.40
2018-02-03T21:24:33.508Z,-0.30
2018-02-03T21:30:03.207Z,-0.20
2018-02-03T21:32:44.215Z,-0.50
2018-02-03T21:35:12.484Z,-0.50
2018-02-03T21:37:40.748Z,-0.30
2018-02-03T21:40:10.709Z,-0.50
2018-02-03T21:42:38.981Z,-0.50
2018-02-03T21:45:07.243Z,-0.70
2018-02-03T21:47:48.119Z,-0.70
2018-02-03T21:50:16.387Z,-0.60
2018-02-03T21:52:44.639Z,-0.60
2018-02-03T21:58:14.581Z,-0.90
2018-02-03T22:01:13.720Z,-0.70
2018-02-03T22:03:41.976Z,-0.90
2018-02-03T22:06:11.008Z,-1.20
2018-02-03T22:08:39.281Z,-0.80
2018-02-03T22:11:07.565Z,-1.10
2018-02-03T22:13:36.601Z,-1.00
2018-02-03T22:19:26.447Z,-1.20
2018-02-03T22:21:55.715Z,-1.10
2018-02-03T22:24:24.748Z,-0.80
2018-02-03T22:26:53.016Z,-1.10
2018-02-03T22:29:21.302Z,-1.10
2018-02-03T22:31:49.578Z,-1.10
2018-02-03T22:34:22.691Z,-1.00
2018-02-03T22:37:15.613Z,-1.10
2018-02-03T22:39:56.780Z,-1.20
2018-02-03T22:42:25.057Z,-1.10
2018-02-03T22:44:53.311Z,-1.10
2018-02-03T22:47:25.774Z,-1.20
2018-02-03T22:49:54.001Z,-1.20
2018-02-03T22:52:22.267Z,-1.20
2018-02-03T22:54:52.194Z,-1.20
2018-02-03T22:57:20.470Z,-1.20
2018-02-03T22:59:48.735Z,-1.20
2018-02-03T23:02:22.469Z,-1.10
2018-02-03T23:07:59.449Z,-1.20
2018-02-03T23:10:28.168Z,-0.90
2018-02-03T23:12:58.391Z,-0.90
2018-02-03T23:15:26.681Z,-1.10
2018-02-03T23:17:56.861Z,-1.30
2018-02-03T23:20:25.120Z,-1.20
2018-02-03T23:22:53.401Z,-1.40
2018-02-03T23:25:31.763Z,-1.20
2018-02-03T23:28:19.268Z,-1.40
2018-02-03T23:31:13.240Z,-1.30
2018-02-03T23:33:47.250Z,-1.20
2018-02-03T23:36:16.292Z,-1.50
2018-02-03T23:38:44.557Z,-1.20
2018-02-03T23:41:40.323Z,-1.30
2018-02-03T23:44:08.613Z,-1.50
2018-02-03T23:46:36.893Z,-1.50
2018-02-03T23:49:05.155Z,-1.50
2018-02-03T23:51:33.428Z,-1.30
2018-02-03T23:54:02.450Z,-1.50
2018-02-03T23:56:54.137Z,-1.20
2018-02-03T23:59:22.413Z,-1.50
